createdAt,value
2022-09-10T00:01:59.845Z,5.05
2022-09-10T00:04:28.115Z,5.63
2022-09-10T00:06:55.717Z,4.97
2022-09-10T00:09:23.199Z,5.20
2022-09-10T00:11:50.655Z,5.40
2022-09-10T00:14:23.113Z,5.38
2022-09-10T00:16:50.580Z,5.25
2022-09-10T00:19:18.314Z,5.50
2022-09-10T00:21:45.727Z,5.10
2022-09-10T00:24:13.736Z,4.80
2022-09-10T00:26:40.861Z,5.00
2022-09-10T00:29:11.719Z,5.20
2022-09-10T00:31:39.234Z,4.72
2022-09-10T00:34:07.034Z,4.28
2022-09-10T00:36:37.444Z,5.05
2022-09-10T00:39:08.333Z,4.75
2022-09-10T00:41:37.811Z,4.07
2022-09-10T00:44:07.508Z,4.07
2022-09-10T00:46:39.577Z,4.32
2022-09-10T00:49:20.374Z,4.03
2022-09-10T00:51:50.428Z,4.45
2022-09-10T00:54:20.321Z,4.50
2022-09-10T00:56:49.781Z,4.43
2022-09-10T00:59:20.487Z,4.65
2022-09-10T01:01:49.261Z,4.45
2022-09-10T01:04:16.747Z,5.63
2022-09-10T01:06:46.265Z,5.22
2022-09-10T01:09:14.773Z,5.40
2022-09-10T01:12:09.977Z,5.03
2022-09-10T01:17:28.524Z,5.40
2022-09-10T01:20:15.744Z,6.50
2022-09-10T01:23:04.107Z,6.60
2022-09-10T01:25:46.757Z,6.05
2022-09-10T01:28:23.251Z,6.75
2022-09-10T01:30:56.875Z,6.13
2022-09-10T01:33:29.080Z,6.88
2022-09-10T01:36:02.335Z,7.65
2022-09-10T01:38:35.569Z,7.15
2022-09-10T01:41:04.420Z,7.90
2022-09-10T01:43:37.674Z,6.82
2022-09-10T01:46:28.326Z,7.85
2022-09-10T01:49:04.393Z,7.75
2022-09-10T01:52:12.214Z,7.15
2022-09-10T01:55:00.418Z,8.27
2022-09-10T01:57:39.305Z,7.10
2022-09-10T02:00:10.790Z,7.63
2022-09-10T02:02:50.278Z,7.70
2022-09-10T02:05:20.712Z,8.57
2022-09-10T02:08:00.052Z,7.95
2022-09-10T02:10:27.657Z,8.50
2022-09-10T02:12:55.516Z,8.05
2022-09-10T02:15:41.412Z,7.40
2022-09-10T02:18:17.458Z,8.10
2022-09-10T02:20:47.128Z,7.72
2022-09-10T02:23:18.382Z,8.65
2022-09-10T02:25:46.037Z,7.72
2022-09-10T02:28:13.823Z,7.35
2022-09-10T02:30:40.984Z,7.15
2022-09-10T02:33:08.323Z,7.38
2022-09-10T02:35:35.422Z,7.53
2022-09-10T02:38:02.536Z,7.30
2022-09-10T02:40:31.883Z,7.68
2022-09-10T02:42:59.212Z,7.07
2022-09-10T02:45:26.777Z,7.13
2022-09-10T02:47:54.930Z,7.28
2022-09-10T02:50:24.421Z,7.15
2022-09-10T02:52:51.866Z,7.15
2022-09-10T02:55:19.089Z,6.47
2022-09-10T02:57:47.237Z,7.13
2022-09-10T03:00:14.603Z,6.03
2022-09-10T03:02:41.625Z,6.35
2022-09-10T03:05:09.177Z,6.30
2022-09-10T03:07:36.584Z,6.30
2022-09-10T03:10:04.230Z,6.50
2022-09-10T03:12:31.493Z,7.05
2022-09-10T03:14:59.728Z,6.80
2022-09-10T03:17:27.043Z,6.90
2022-09-10T03:19:54.824Z,6.70
2022-09-10T03:22:22.121Z,6.53
2022-09-10T03:24:49.601Z,6.15
2022-09-10T03:27:18.221Z,6.80
2022-09-10T03:29:45.464Z,6.10
2022-09-10T03:32:14.154Z,6.63
2022-09-10T03:34:41.328Z,6.28
2022-09-10T03:37:08.362Z,6.57
2022-09-10T03:39:36.434Z,6.18
2022-09-10T03:42:05.311Z,6.53
2022-09-10T03:44:33.728Z,5.93
2022-09-10T03:47:01.776Z,6.50
2022-09-10T03:49:29.279Z,6.05
2022-09-10T03:51:56.497Z,6.70
2022-09-10T03:54:24.625Z,6.30
2022-09-10T03:56:51.977Z,6.53
2022-09-10T03:59:19.374Z,6.72
2022-09-10T04:01:47.417Z,6.70
2022-09-10T04:04:15.013Z,6.95
2022-09-10T04:06:42.744Z,7.38
2022-09-10T04:09:10.431Z,7.93
2022-09-10T04:11:37.652Z,8.80
2022-09-10T04:14:04.661Z,8.02
2022-09-10T04:16:32.578Z,6.80
2022-09-10T04:19:00.759Z,7.15
2022-09-10T04:21:29.487Z,8.73
2022-09-10T04:23:57.067Z,7.93
2022-09-10T04:26:25.430Z,7.22
2022-09-10T04:28:53.545Z,5.70
2022-09-10T04:31:22.543Z,7.78
2022-09-10T04:33:53.765Z,6.85
2022-09-10T04:36:24.000Z,7.05
2022-09-10T04:38:51.024Z,6.35
2022-09-10T04:41:19.626Z,7.18
2022-09-10T04:43:47.685Z,12.10
2022-09-10T04:46:15.424Z,10.20
2022-09-10T04:48:43.384Z,6.13
2022-09-10T04:51:16.633Z,5.13
2022-09-10T04:53:47.097Z,4.68
2022-09-10T04:56:14.728Z,4.47
2022-09-10T04:58:44.364Z,4.60
2022-09-10T05:01:13.175Z,4.30
2022-09-10T05:03:42.645Z,4.32
2022-09-10T05:06:09.892Z,4.55
2022-09-10T05:08:37.010Z,4.85
2022-09-10T05:11:05.251Z,3.97
2022-09-10T05:13:33.148Z,5.32
2022-09-10T05:16:01.685Z,7.50
2022-09-10T05:18:30.658Z,10.63
2022-09-10T05:20:57.832Z,6.40
2022-09-10T05:23:24.932Z,5.57
2022-09-10T05:25:54.115Z,7.60
2022-09-10T05:28:21.949Z,9.88
2022-09-10T05:30:51.699Z,6.68
2022-09-10T05:33:22.147Z,6.30
2022-09-10T05:35:51.881Z,9.13
2022-09-10T05:38:20.306Z,6.85
2022-09-10T05:40:48.635Z,11.20
2022-09-10T05:43:15.707Z,7.78
2022-09-10T05:45:44.845Z,5.40
2022-09-10T05:48:11.913Z,4.00
2022-09-10T05:50:40.744Z,4.28
2022-09-10T05:53:08.852Z,4.82
2022-09-10T05:55:35.973Z,4.55
2022-09-10T05:58:03.187Z,4.90
2022-09-10T06:00:30.993Z,4.80
2022-09-10T06:03:00.587Z,3.50
2022-09-10T06:05:32.492Z,3.40
2022-09-10T06:08:06.558Z,2.78
2022-09-10T06:10:37.671Z,2.63
2022-09-10T06:13:04.744Z,2.60
2022-09-10T06:15:33.401Z,2.75
2022-09-10T06:18:02.004Z,2.40
2022-09-10T06:20:30.126Z,3.10
2022-09-10T06:22:57.245Z,2.65
2022-09-10T06:25:24.832Z,2.50
2022-09-10T06:27:52.130Z,2.35
2022-09-10T06:30:20.801Z,2.47
2022-09-10T06:32:48.527Z,2.42
2022-09-10T06:35:16.436Z,2.20
2022-09-10T06:37:44.216Z,2.80
2022-09-10T06:40:13.611Z,1.50
2022-09-10T06:42:41.107Z,1.77
2022-09-10T06:45:08.808Z,1.63
2022-09-10T06:50:53.482Z,1.45
2022-09-10T06:53:23.886Z,1.50
2022-09-10T06:55:53.081Z,1.35
2022-09-10T06:58:22.247Z,1.58
2022-09-10T07:00:52.367Z,1.50
2022-09-10T07:03:22.180Z,1.40
2022-09-10T07:05:54.933Z,1.27
2022-09-10T07:08:26.015Z,1.75
2022-09-10T07:11:00.696Z,1.35
2022-09-10T07:13:27.990Z,1.30
2022-09-10T07:15:56.098Z,1.90
2022-09-10T07:18:24.163Z,1.70
2022-09-10T07:20:51.793Z,1.60
2022-09-10T07:23:21.924Z,1.58
2022-09-10T07:25:51.925Z,1.10
2022-09-10T07:28:38.107Z,1.45
2022-09-10T07:31:16.169Z,1.40
2022-09-10T07:33:45.609Z,1.30
2022-09-10T07:36:13.055Z,1.30
2022-09-10T07:38:41.373Z,0.95
2022-09-10T07:41:11.450Z,0.90
2022-09-10T07:43:39.875Z,1.30
2022-09-10T07:46:12.590Z,1.00
2022-09-10T07:48:41.580Z,0.93
2022-09-10T07:51:11.831Z,1.00
2022-09-10T07:53:47.543Z,1.10
2022-09-10T07:56:18.520Z,1.10
2022-09-10T07:58:45.616Z,1.20
2022-09-10T08:01:13.423Z,1.48
2022-09-10T08:03:40.940Z,1.13
2022-09-10T08:06:10.164Z,1.23
2022-09-10T08:08:40.479Z,1.77
2022-09-10T08:11:14.529Z,1.20
2022-09-10T08:13:45.675Z,1.02
2022-09-10T08:16:17.123Z,1.10
2022-09-10T08:18:45.651Z,0.70
2022-09-10T08:21:13.760Z,0.88
2022-09-10T08:23:41.527Z,0.90
2022-09-10T08:26:08.991Z,1.10
2022-09-10T08:28:38.136Z,0.90
2022-09-10T08:31:10.000Z,0.93
2022-09-10T08:33:48.625Z,0.93
2022-09-10T08:36:17.187Z,0.83
2022-09-10T08:38:46.178Z,0.70
2022-09-10T08:41:37.107Z,0.95
2022-09-10T08:44:09.940Z,1.00
2022-09-10T08:46:53.542Z,0.77
2022-09-10T08:49:50.508Z,1.20
2022-09-10T08:52:53.560Z,1.17
2022-09-10T08:55:31.602Z,1.20
2022-09-10T09:00:34.807Z,1.00
2022-09-10T09:03:14.063Z,1.23
2022-09-10T09:05:48.862Z,1.10
2022-09-10T09:08:19.977Z,1.00
2022-09-10T09:10:51.335Z,1.10
2022-09-10T09:13:53.929Z,1.10
2022-09-10T09:16:27.885Z,0.90
2022-09-10T09:21:50.325Z,0.85
2022-09-10T09:24:42.058Z,0.80
2022-09-10T09:27:16.455Z,0.93
2022-09-10T09:29:53.344Z,1.05
2022-09-10T09:32:22.782Z,0.80
2022-09-10T09:34:57.181Z,0.95
2022-09-10T09:37:30.242Z,0.80
2022-09-10T09:40:26.623Z,0.85
2022-09-10T09:43:03.558Z,0.75
2022-09-10T09:45:43.333Z,0.77
2022-09-10T09:48:14.258Z,0.70
2022-09-10T09:50:46.560Z,0.80
2022-09-10T09:53:26.012Z,0.80
2022-09-10T09:55:58.220Z,0.52
2022-09-10T09:58:26.357Z,0.75
2022-09-10T10:01:13.283Z,0.65
2022-09-10T10:03:52.466Z,0.80
2022-09-10T10:06:24.720Z,0.70
2022-09-10T10:08:57.270Z,0.90
2022-09-10T10:11:58.726Z,0.55
2022-09-10T10:14:35.459Z,0.90
2022-09-10T10:17:03.211Z,0.90
2022-09-10T10:19:34.320Z,0.50
2022-09-10T10:22:24.219Z,0.95
2022-09-10T10:24:54.093Z,0.57
2022-09-10T10:27:26.961Z,0.60
2022-09-10T10:30:01.666Z,0.50
2022-09-10T10:32:39.371Z,0.60
2022-09-10T10:35:27.367Z,0.50
2022-09-10T10:38:18.528Z,0.52
2022-09-10T10:40:51.609Z,0.50
2022-09-10T10:43:34.581Z,0.40
2022-09-10T10:46:11.822Z,0.40
2022-09-10T10:49:03.518Z,0.30
2022-09-10T10:51:32.271Z,0.43
2022-09-10T10:54:25.905Z,0.57
2022-09-10T10:57:02.613Z,0.40
2022-09-10T10:59:55.128Z,0.38
2022-09-10T11:02:30.304Z,0.40
2022-09-10T11:05:01.221Z,0.30
2022-09-10T11:07:29.619Z,0.50
2022-09-10T11:10:11.541Z,0.45
2022-09-10T11:12:46.805Z,0.35
2022-09-10T11:15:19.544Z,0.40
2022-09-10T11:17:54.661Z,0.52
2022-09-10T11:20:31.100Z,0.60
2022-09-10T11:23:01.497Z,0.40
2022-09-10T11:25:34.543Z,0.40
2022-09-10T11:28:12.953Z,0.50
2022-09-10T11:30:49.154Z,0.40
2022-09-10T11:33:48.424Z,0.40
2022-09-10T11:36:25.205Z,0.40
2022-09-10T11:39:13.041Z,0.40
2022-09-10T11:41:42.899Z,0.47
2022-09-10T11:44:36.595Z,0.50
2022-09-10T11:47:12.947Z,0.30
2022-09-10T11:50:03.917Z,0.40
2022-09-10T11:52:33.731Z,0.38
2022-09-10T11:55:03.802Z,0.40
2022-09-10T11:57:59.422Z,0.30
2022-09-10T12:00:29.871Z,0.30
2022-09-10T12:03:17.220Z,0.50
2022-09-10T12:05:55.341Z,0.40
2022-09-10T12:08:42.329Z,0.45
2022-09-10T12:11:37.896Z,0.30
2022-09-10T12:14:07.951Z,0.30
2022-09-10T12:16:37.102Z,0.30
2022-09-10T12:19:09.047Z,0.30
2022-09-10T12:21:41.457Z,0.30
2022-09-10T12:24:32.146Z,0.30
2022-09-10T12:27:01.349Z,0.50
2022-09-10T12:29:28.328Z,0.30
2022-09-10T12:32:25.697Z,0.30
2022-09-10T12:35:32.864Z,0.40
2022-09-10T12:38:40.199Z,0.38
2022-09-10T12:41:11.502Z,0.40
2022-09-10T12:43:40.245Z,0.45
2022-09-10T12:46:07.693Z,0.30
2022-09-10T12:48:38.021Z,0.60
2022-09-10T12:51:23.840Z,0.20
2022-09-10T12:54:16.375Z,0.40
2022-09-10T12:57:04.024Z,0.40
2022-09-10T13:00:12.451Z,0.38
2022-09-10T13:03:06.875Z,0.30
2022-09-10T13:05:48.430Z,0.30
2022-09-10T13:08:15.394Z,1.23
2022-09-10T13:10:46.056Z,0.82
2022-09-10T13:13:34.236Z,0.30
2022-09-10T13:16:03.662Z,0.68
2022-09-10T13:18:36.171Z,0.40
2022-09-10T13:21:23.525Z,0.20
2022-09-10T13:23:53.756Z,0.22
2022-09-10T13:26:49.858Z,0.52
2022-09-10T13:29:47.415Z,0.82
2022-09-10T13:32:29.207Z,0.30
2022-09-10T13:35:05.982Z,0.30
2022-09-10T13:37:58.777Z,0.22
2022-09-10T13:40:44.966Z,0.30
2022-09-10T13:43:40.899Z,0.20
2022-09-10T13:46:20.919Z,0.40
2022-09-10T13:49:00.612Z,0.30
2022-09-10T13:51:36.397Z,0.30
2022-09-10T13:54:27.714Z,0.30
2022-09-10T13:56:56.564Z,0.30
2022-09-10T13:59:30.913Z,0.30
2022-09-10T14:01:59.551Z,0.20
2022-09-10T14:04:32.893Z,0.40
2022-09-10T14:07:08.031Z,0.40
2022-09-10T14:09:35.421Z,0.35
2022-09-10T14:12:06.464Z,0.35
2022-09-10T14:14:39.231Z,0.30
2022-09-10T14:17:11.167Z,0.30
2022-09-10T14:19:47.817Z,0.30
2022-09-10T14:22:22.123Z,0.35
2022-09-10T14:24:53.126Z,0.30
2022-09-10T14:27:37.658Z,0.40
2022-09-10T14:30:26.307Z,0.30
2022-09-10T14:32:53.574Z,0.25
2022-09-10T14:35:43.053Z,0.30
2022-09-10T14:38:31.500Z,0.40
2022-09-10T14:41:08.120Z,0.50
2022-09-10T14:43:39.245Z,0.30
2022-09-10T14:46:09.163Z,0.28
2022-09-10T14:48:37.108Z,0.30
2022-09-10T14:51:22.965Z,0.50
2022-09-10T14:53:53.766Z,0.40
2022-09-10T14:56:24.838Z,0.30
2022-09-10T14:59:06.355Z,0.30
2022-09-10T15:01:35.562Z,0.30
2022-09-10T15:04:03.594Z,0.35
2022-09-10T15:06:31.851Z,0.40
2022-09-10T15:09:00.714Z,0.47
2022-09-10T15:11:28.861Z,0.35
2022-09-10T15:13:56.329Z,0.50
2022-09-10T15:16:23.505Z,0.57
2022-09-10T15:18:50.850Z,0.70
2022-09-10T15:21:17.849Z,0.57
2022-09-10T15:23:45.085Z,0.63
2022-09-10T15:26:14.687Z,0.85
2022-09-10T15:28:42.470Z,0.30
2022-09-10T15:31:10.979Z,0.40
2022-09-10T15:33:39.007Z,0.80
2022-09-10T15:36:07.020Z,1.70
2022-09-10T15:38:34.660Z,1.77
2022-09-10T15:41:20.773Z,1.60
2022-09-10T15:43:49.043Z,1.42
2022-09-10T15:46:17.630Z,1.73
2022-09-10T15:48:47.731Z,0.70
2022-09-10T15:51:17.797Z,0.70
2022-09-10T15:53:46.117Z,0.40
2022-09-10T15:56:14.781Z,0.60
2022-09-10T15:58:43.448Z,0.60
2022-09-10T16:01:12.884Z,0.73
2022-09-10T16:03:50.399Z,0.80
2022-09-10T16:06:20.973Z,0.70
2022-09-10T16:08:52.391Z,0.73
2022-09-10T16:11:20.569Z,0.90
2022-09-10T16:13:47.747Z,1.20
2022-09-10T16:16:23.955Z,0.93
2022-09-10T16:18:53.853Z,1.00
2022-09-10T16:21:24.579Z,0.90
2022-09-10T16:23:53.431Z,1.02
2022-09-10T16:26:25.521Z,0.88
2022-09-10T16:28:57.195Z,1.45
2022-09-10T16:31:27.723Z,1.40
2022-09-10T16:33:56.777Z,2.70
2022-09-10T16:36:24.350Z,1.08
2022-09-10T16:38:55.631Z,0.95
2022-09-10T16:41:24.540Z,2.72
2022-09-10T16:43:52.550Z,1.52
2022-09-10T16:46:19.708Z,0.70
2022-09-10T16:48:47.335Z,0.93
2022-09-10T16:51:17.518Z,1.30
2022-09-10T16:53:52.264Z,0.90
2022-09-10T16:56:19.291Z,1.10
2022-09-10T16:58:47.734Z,0.68
2022-09-10T17:01:16.077Z,1.10
2022-09-10T17:03:46.052Z,0.88
2022-09-10T17:06:17.201Z,1.48
2022-09-10T17:08:45.269Z,3.72
2022-09-10T17:11:14.370Z,1.08
2022-09-10T17:13:42.061Z,0.75
2022-09-10T17:16:23.211Z,1.30
2022-09-10T17:18:59.301Z,0.80
2022-09-10T17:21:28.628Z,0.68
2022-09-10T17:23:56.300Z,0.68
2022-09-10T17:26:25.273Z,0.50
2022-09-10T17:28:57.369Z,0.80
2022-09-10T17:31:25.364Z,0.60
2022-09-10T17:33:52.483Z,0.70
2022-09-10T17:36:20.028Z,0.80
2022-09-10T17:38:47.507Z,0.82
2022-09-10T17:41:15.081Z,0.73
2022-09-10T17:43:43.757Z,0.90
2022-09-10T17:46:14.950Z,0.70
2022-09-10T17:48:46.187Z,0.98
2022-09-10T17:51:15.844Z,0.70
2022-09-10T17:53:43.925Z,0.70
2022-09-10T17:56:13.486Z,0.70
2022-09-10T17:58:41.614Z,0.82
2022-09-10T18:01:12.910Z,0.60
2022-09-10T18:03:40.843Z,0.40
2022-09-10T18:06:11.074Z,0.80
2022-09-10T18:08:39.385Z,1.25
2022-09-10T18:11:13.005Z,1.40
2022-09-10T18:13:40.411Z,1.47
2022-09-10T18:16:09.517Z,1.48
2022-09-10T18:18:37.935Z,1.25
2022-09-10T18:21:14.740Z,1.00
2022-09-10T18:23:43.841Z,1.00
2022-09-10T18:26:14.396Z,1.00
2022-09-10T18:28:42.751Z,0.80
2022-09-10T18:31:11.103Z,0.90
2022-09-10T18:33:40.912Z,1.10
2022-09-10T18:36:14.516Z,0.90
2022-09-10T18:38:44.547Z,0.98
2022-09-10T18:41:21.070Z,0.93
2022-09-10T18:43:48.950Z,1.17
2022-09-10T18:46:17.140Z,0.82
2022-09-10T18:48:44.636Z,0.85
2022-09-10T18:51:14.721Z,1.00
2022-09-10T18:53:45.470Z,1.02
2022-09-10T18:56:16.247Z,1.02
2022-09-10T18:58:49.031Z,1.00
2022-09-10T19:01:16.864Z,1.17
2022-09-10T19:03:47.012Z,1.40
2022-09-10T19:06:16.936Z,1.48
2022-09-10T19:08:50.031Z,1.77
2022-09-10T19:11:17.770Z,1.20
2022-09-10T19:13:49.655Z,1.30
2022-09-10T19:16:17.772Z,1.42
2022-09-10T19:18:54.249Z,1.52
2022-09-10T19:21:22.382Z,1.00
2022-09-10T19:23:50.639Z,1.08
2022-09-10T19:26:19.391Z,0.80
2022-09-10T19:28:47.933Z,1.08
2022-09-10T19:31:19.695Z,1.10
2022-09-10T19:33:47.895Z,1.38
2022-09-10T19:36:17.906Z,1.30
2022-09-10T19:38:46.172Z,1.15
2022-09-10T19:41:19.018Z,0.82
2022-09-10T19:43:47.999Z,1.15
2022-09-10T19:46:18.033Z,0.80
2022-09-10T19:48:46.797Z,0.82
2022-09-10T19:51:16.537Z,1.00
2022-09-10T19:53:43.849Z,0.88
2022-09-10T19:56:20.675Z,0.80
2022-09-10T19:58:50.690Z,0.95
2022-09-10T20:01:20.954Z,0.93
2022-09-10T20:03:49.999Z,0.73
2022-09-10T20:06:18.963Z,0.70
2022-09-10T20:08:50.634Z,0.88
2022-09-10T20:11:22.365Z,0.80
2022-09-10T20:13:54.440Z,1.00
2022-09-10T20:16:22.209Z,0.90
2022-09-10T20:18:49.458Z,1.10
2022-09-10T20:21:24.170Z,1.10
2022-09-10T20:23:53.079Z,0.73
2022-09-10T20:26:22.849Z,0.90
2022-09-10T20:28:52.898Z,1.00
2022-09-10T20:31:20.737Z,0.90
2022-09-10T20:33:48.293Z,0.98
2022-09-10T20:36:17.360Z,1.10
2022-09-10T20:38:45.000Z,1.40
2022-09-10T20:41:12.412Z,1.17
2022-09-10T20:43:40.136Z,1.30
2022-09-10T20:46:14.902Z,1.35
2022-09-10T20:48:44.854Z,1.30
2022-09-10T20:51:17.994Z,1.58
2022-09-10T20:53:45.482Z,0.82
2022-09-10T20:56:15.362Z,1.00
2022-09-10T20:58:42.583Z,1.00
2022-09-10T21:01:14.611Z,1.20
2022-09-10T21:03:42.188Z,1.50
2022-09-10T21:06:10.778Z,1.20
2022-09-10T21:08:39.704Z,1.20
2022-09-10T21:11:09.469Z,1.25
2022-09-10T21:13:37.848Z,1.23
2022-09-10T21:16:09.220Z,1.20
2022-09-10T21:18:37.596Z,1.40
2022-09-10T21:21:08.192Z,1.73
2022-09-10T21:23:36.786Z,1.40
2022-09-10T21:26:04.229Z,1.20
2022-09-10T21:28:31.568Z,1.70
2022-09-10T21:31:03.191Z,1.92
2022-09-10T21:33:30.413Z,2.85
2022-09-10T21:36:06.672Z,2.17
2022-09-10T21:38:35.741Z,2.00
2022-09-10T21:41:04.819Z,1.90
2022-09-10T21:43:33.915Z,1.60
2022-09-10T21:46:02.440Z,1.52
2022-09-10T21:48:32.754Z,1.55
2022-09-10T21:51:02.166Z,1.88
2022-09-10T21:53:29.152Z,1.90
2022-09-10T21:55:57.792Z,2.13
2022-09-10T21:58:28.102Z,1.85
2022-09-10T22:00:58.624Z,1.75
2022-09-10T22:03:27.040Z,1.63
2022-09-10T22:06:11.886Z,1.80
2022-09-10T22:08:41.886Z,1.73
2022-09-10T22:11:14.373Z,2.53
2022-09-10T22:13:43.121Z,2.33
2022-09-10T22:16:12.771Z,2.75
2022-09-10T22:18:41.563Z,2.63
2022-09-10T22:21:09.534Z,3.08
2022-09-10T22:23:38.574Z,2.85
2022-09-10T22:26:08.224Z,2.55
2022-09-10T22:28:36.734Z,2.60
2022-09-10T22:31:17.295Z,2.78
2022-09-10T22:33:50.030Z,2.88
2022-09-10T22:36:21.300Z,2.70
2022-09-10T22:38:50.076Z,3.20
2022-09-10T22:41:17.705Z,2.67
2022-09-10T22:43:45.206Z,2.67
2022-09-10T22:46:12.557Z,2.97
2022-09-10T22:48:42.643Z,2.40
2022-09-10T22:51:13.913Z,2.45
2022-09-10T22:53:42.798Z,3.17
2022-09-10T22:56:11.500Z,2.38
2022-09-10T22:58:38.932Z,2.45
2022-09-10T23:01:09.009Z,2.10
2022-09-10T23:03:37.881Z,2.38
2022-09-10T23:06:05.774Z,2.33
2022-09-10T23:08:35.095Z,2.05
2022-09-10T23:11:10.935Z,2.20
2022-09-10T23:13:38.681Z,2.20
2022-09-10T23:16:22.912Z,2.92
2022-09-10T23:18:53.319Z,2.58
2022-09-10T23:21:23.900Z,2.30
2022-09-10T23:23:54.004Z,2.10
2022-09-10T23:26:22.737Z,2.40
2022-09-10T23:28:50.165Z,1.83
2022-09-10T23:31:21.010Z,1.83
2022-09-10T23:33:55.262Z,2.35
2022-09-10T23:36:23.345Z,1.88
2022-09-10T23:38:50.473Z,2.00
2022-09-10T23:41:18.046Z,1.70
2022-09-10T23:43:45.590Z,2.17
2022-09-10T23:46:13.350Z,2.10
2022-09-10T23:48:42.699Z,2.10
2022-09-10T23:51:13.732Z,2.30
2022-09-10T23:53:42.463Z,2.30
2022-09-10T23:56:09.707Z,2.20
2022-09-10T23:58:36.863Z,2.20
